Time;durP1;ratioP1;P1;durP2;ratioP2;P2;SDS_P1;SDS_P2;PMS_P1;PMS_P2;Temp;Humidity;BMP_temperature;BMP_pressure;BME280_temperature;BME280_humidity;BME280_pressure;Samples;Min_cycle;Max_cycle;Signal;HPM_P1;HPM_P2
2023/10/04 00:01:47;;;;;;;15.80;6.60;;;;;;;12.31;100.00;100474.42;104986;1259;74272;-52
2023/10/04 00:04:14;;;;;;;12.40;7.50;;;;;;;12.30;100.00;100474.45;104876;1256;68956;-52
2023/10/04 00:06:42;;;;;;;14.80;6.60;;;;;;;12.29;100.00;100470.39;104939;1257;73098;-50
2023/10/04 00:09:10;;;;;;;13.90;6.20;;;;;;;12.28;100.00;100467.54;104778;1260;59636;-52
2023/10/04 00:11:37;;;;;;;17.90;6.90;;;;;;;12.27;100.00;100463.80;104963;1254;60021;-52
2023/10/04 00:14:06;;;;;;;14.20;6.50;;;;;;;12.27;100.00;100458.93;105208;1258;72974;-52
2023/10/04 00:16:34;;;;;;;11.60;6.50;;;;;;;12.28;100.00;100456.39;104925;1259;65669;-53
2023/10/04 00:19:02;;;;;;;10.50;6.60;;;;;;;12.29;100.00;100453.99;108875;1254;70582;-53
2023/10/04 00:21:30;;;;;;;11.60;6.30;;;;;;;12.31;100.00;100449.96;105497;1259;60516;-54
2023/10/04 00:24:00;;;;;;;13.10;6.90;;;;;;;12.33;100.00;100447.36;104855;1254;59818;-52
2023/10/04 00:26:27;;;;;;;12.30;6.40;;;;;;;12.34;100.00;100446.02;108928;1254;73094;-51
2023/10/04 00:28:55;;;;;;;9.70;6.00;;;;;;;12.35;100.00;100440.77;105330;1259;66712;-50
2023/10/04 00:31:22;;;;;;;14.70;6.10;;;;;;;12.35;100.00;100440.02;104829;1257;71474;-50
2023/10/04 00:33:50;;;;;;;14.40;6.30;;;;;;;12.35;100.00;100441.47;104928;1256;59736;-54
2023/10/04 00:36:21;;;;;;;12.80;6.40;;;;;;;12.36;100.00;100441.09;104775;1256;59650;-51
2023/10/04 00:38:49;;;;;;;12.10;6.60;;;;;;;12.36;100.00;100440.91;105130;1254;72930;-51
2023/10/04 00:41:20;;;;;;;19.60;7.20;;;;;;;12.35;100.00;100442.76;104789;1260;68343;-51
2023/10/04 00:43:49;;;;;;;13.20;6.30;;;;;;;12.34;100.00;100439.53;104917;1254;72736;-52
2023/10/04 00:46:18;;;;;;;12.40;5.90;;;;;;;12.33;100.00;100438.36;104922;1256;59843;-52
2023/10/04 00:48:46;;;;;;;9.80;5.50;;;;;;;12.31;100.00;100436.30;104957;1259;59707;-51
2023/10/04 00:51:15;;;;;;;13.10;6.20;;;;;;;12.29;100.00;100437.63;104718;1255;73459;-51
2023/10/04 00:53:43;;;;;;;14.00;7.20;;;;;;;12.27;100.00;100440.93;105418;1254;66850;-50
2023/10/04 00:56:12;;;;;;;16.70;7.00;;;;;;;12.26;100.00;100435.25;105164;1254;71478;-51
2023/10/04 00:58:39;;;;;;;14.50;6.10;;;;;;;12.24;100.00;100431.90;108951;1254;58881;-53
2023/10/04 01:01:07;;;;;;;12.40;6.10;;;;;;;12.23;100.00;100429.83;108987;1259;60103;-52
2023/10/04 01:03:37;;;;;;;12.20;4.90;;;;;;;12.20;100.00;100427.75;106208;1255;72930;-51
2023/10/04 01:06:05;;;;;;;12.70;5.80;;;;;;;12.18;100.00;100423.70;108412;1255;65822;-54
2023/10/04 01:08:34;;;;;;;13.80;6.70;;;;;;;12.17;100.00;100421.45;104683;1261;73471;-54
2023/10/04 01:11:02;;;;;;;13.20;5.60;;;;;;;12.16;100.00;100424.02;104766;1255;61027;-52
2023/10/04 01:13:30;;;;;;;16.70;7.10;;;;;;;12.14;100.00;100424.27;109143;1254;58732;-52
2023/10/04 01:15:59;;;;;;;10.40;5.30;;;;;;;12.12;100.00;100425.05;108867;1254;73224;-55
2023/10/04 01:18:30;;;;;;;14.10;5.40;;;;;;;12.11;100.00;100423.28;108945;1254;66746;-53
2023/10/04 01:20:58;;;;;;;14.20;6.20;;;;;;;12.11;100.00;100418.63;108966;1254;72697;-52
2023/10/04 01:23:29;;;;;;;12.80;5.40;;;;;;;12.11;100.00;100418.61;109082;1255;60444;-54
2023/10/04 01:25:56;;;;;;;11.30;5.70;;;;;;;12.13;100.00;100420.86;108941;1254;60516;-53
2023/10/04 01:28:30;;;;;;;11.30;5.40;;;;;;;12.16;100.00;100418.44;108929;1254;71950;-52
2023/10/04 01:31:01;;;;;;;12.20;5.80;;;;;;;12.18;100.00;100416.34;108976;1258;65858;-52
2023/10/04 01:33:28;;;;;;;13.20;6.00;;;;;;;12.21;100.00;100411.36;108960;1254;72447;-52
2023/10/04 01:35:58;;;;;;;17.90;6.50;;;;;;;12.24;100.00;100415.20;108940;1254;60170;-54
2023/10/04 01:38:25;;;;;;;13.40;5.90;;;;;;;12.26;100.00;100411.11;109042;1259;59324;-53
2023/10/04 01:40:54;;;;;;;10.60;5.40;;;;;;;12.28;100.00;100409.96;108986;1254;73087;-54
2023/10/04 01:43:24;;;;;;;13.30;6.50;;;;;;;12.29;100.00;100411.16;108868;1254;65769;-52
2023/10/04 01:45:57;;;;;;;14.00;5.80;;;;;;;12.30;100.00;100409.15;105351;1259;71261;-52
2023/10/04 01:48:26;;;;;;;13.20;6.30;;;;;;;12.30;100.00;100408.25;108962;1256;60222;-53
2023/10/04 01:50:54;;;;;;;13.90;6.30;;;;;;;12.30;100.00;100405.73;107440;1258;60075;-54
2023/10/04 01:53:24;;;;;;;12.60;6.20;;;;;;;12.30;100.00;100402.14;104791;1260;71769;-51
2023/10/04 01:55:52;;;;;;;12.90;6.90;;;;;;;12.30;100.00;100394.94;106492;1257;65544;-53
2023/10/04 01:58:23;;;;;;;15.20;6.00;;;;;;;12.30;100.00;100393.66;105025;1260;70436;-52
2023/10/04 02:00:52;;;;;;;14.60;6.20;;;;;;;12.29;100.00;100387.58;104599;1258;60453;-52
2023/10/04 02:03:20;;;;;;;14.00;7.00;;;;;;;12.28;100.00;100383.70;104975;1260;60108;-53
2023/10/04 02:05:50;;;;;;;14.70;6.10;;;;;;;12.26;100.00;100381.23;105812;1260;71810;-53
2023/10/04 02:08:17;;;;;;;12.90;7.00;;;;;;;12.24;100.00;100374.16;105719;1259;65684;-50
2023/10/04 02:10:45;;;;;;;13.70;6.10;;;;;;;12.22;100.00;100369.39;104841;1260;70475;-50
2023/10/04 02:13:15;;;;;;;12.10;6.10;;;;;;;12.20;100.00;100370.39;104756;1260;60301;-52
2023/10/04 02:15:47;;;;;;;15.10;5.70;;;;;;;12.18;100.00;100362.90;104815;1260;59735;-50
2023/10/04 02:18:15;;;;;;;15.00;5.90;;;;;;;12.16;100.00;100358.71;106183;1255;71835;-55
2023/10/04 02:20:46;;;;;;;14.50;6.20;;;;;;;12.13;100.00;100353.79;105049;1260;68549;-51
2023/10/04 02:23:18;;;;;;;16.10;6.60;;;;;;;12.10;100.00;100354.27;105390;1260;71446;-52
2023/10/04 02:25:47;;;;;;;15.50;6.50;;;;;;;12.06;100.00;100351.57;104944;1254;60294;-51
2023/10/04 02:28:24;;;;;;;15.00;6.40;;;;;;;12.04;100.00;100351.31;104912;1257;59570;-50
2023/10/04 02:30:55;;;;;;;15.50;6.40;;;;;;;12.01;100.00;100345.84;104697;1260;73112;-53
2023/10/04 02:33:32;;;;;;;13.30;5.90;;;;;;;11.99;100.00;100345.23;105120;1260;67240;-52
2023/10/04 02:36:00;;;;;;;11.30;5.00;;;;;;;11.98;100.00;100340.06;105036;1259;72972;-52
2023/10/04 02:38:31;;;;;;;12.80;5.70;;;;;;;11.97;100.00;100338.83;105396;1260;60484;-51
2023/10/04 02:41:05;;;;;;;15.30;5.00;;;;;;;11.97;100.00;100340.83;104841;1260;59761;-52
2023/10/04 02:43:33;;;;;;;12.90;5.50;;;;;;;11.99;100.00;100338.60;105541;1260;73108;-54
2023/10/04 02:46:00;;;;;;;14.90;5.30;;;;;;;11.99;100.00;100335.49;105601;1260;65299;-53
2023/10/04 02:48:31;;;;;;;14.90;5.20;;;;;;;12.01;100.00;100332.90;105104;1259;72705;-50
2023/10/04 02:50:59;;;;;;;13.60;5.90;;;;;;;12.03;100.00;100334.80;105500;1259;59757;-52
2023/10/04 02:53:27;;;;;;;16.60;5.40;;;;;;;12.05;100.00;100334.54;105047;1259;59696;-54
2023/10/04 02:55:57;;;;;;;13.60;6.60;;;;;;;12.06;100.00;100333.05;105015;1258;72302;-53
2023/10/04 02:58:34;;;;;;;12.00;6.10;;;;;;;12.07;100.00;100337.15;105231;1260;66355;-51
2023/10/04 03:01:03;;;;;;;15.10;5.90;;;;;;;12.07;100.00;100333.02;105239;1254;72729;-52
2023/10/04 03:03:31;;;;;;;13.70;5.90;;;;;;;12.06;100.00;100331.96;105130;1257;60387;-51
2023/10/04 03:06:02;;;;;;;13.30;5.80;;;;;;;12.07;100.00;100331.77;105065;1259;61097;-52
2023/10/04 03:08:32;;;;;;;14.10;5.80;;;;;;;12.05;100.00;100331.45;105080;1260;73098;-52
2023/10/04 03:11:03;;;;;;;15.20;5.80;;;;;;;12.04;100.00;100320.52;105267;1263;65668;-53
2023/10/04 03:13:34;;;;;;;10.90;5.70;;;;;;;12.02;100.00;100319.00;105845;1258;72739;-50
2023/10/04 03:16:03;;;;;;;12.10;5.10;;;;;;;12.01;100.00;100315.44;105563;1255;59749;-53
2023/10/04 03:18:33;;;;;;;16.80;6.70;;;;;;;12.00;100.00;100313.89;105075;1259;60563;-50
2023/10/04 03:23:36;;;;;;;;;;;;;;;11.96;100.00;100309.04;106350;1260;66763;-52
2023/10/04 03:26:12;;;;;;;9.40;5.10;;;;;;;11.93;100.00;100306.27;105973;1259;72747;-52
2023/10/04 03:28:40;;;;;;;17.00;6.10;;;;;;;11.91;100.00;100302.05;106261;1259;60539;-53
2023/10/04 03:31:14;;;;;;;17.20;5.80;;;;;;;11.89;100.00;100294.27;104997;1260;60600;-52
2023/10/04 03:33:46;;;;;;;12.00;5.80;;;;;;;11.86;100.00;100289.70;104712;1255;71963;-53
2023/10/04 03:36:17;;;;;;;11.80;5.50;;;;;;;11.84;100.00;100286.73;107642;1256;67033;-51
2023/10/04 03:38:49;;;;;;;14.10;5.80;;;;;;;11.82;100.00;100284.88;105009;1260;76109;-53
2023/10/04 03:41:19;;;;;;;13.80;6.00;;;;;;;11.80;100.00;100280.45;105040;1259;60562;-51
2023/10/04 03:43:47;;;;;;;14.70;4.90;;;;;;;11.79;100.00;100281.23;105452;1261;60915;-51
2023/10/04 03:46:21;;;;;;;12.90;5.10;;;;;;;11.78;100.00;100281.80;105060;1254;72648;-52
2023/10/04 03:48:55;;;;;;;11.30;5.60;;;;;;;11.78;100.00;100285.95;105503;1267;66990;-51
2023/10/04 03:51:24;;;;;;;15.00;5.90;;;;;;;11.78;100.00;100290.98;106808;1259;73324;-51
2023/10/04 03:53:54;;;;;;;11.10;6.00;;;;;;;11.79;100.00;100290.59;104581;1262;60668;-51
2023/10/04 03:56:25;;;;;;;12.70;6.00;;;;;;;11.79;100.00;100288.92;108869;1254;58996;-53
2023/10/04 03:58:54;;;;;;;14.70;5.40;;;;;;;11.79;100.00;100290.75;105203;1260;73910;-51
2023/10/04 04:01:22;;;;;;;14.50;6.60;;;;;;;11.79;100.00;100292.02;105219;1263;66165;-51
2023/10/04 04:03:49;;;;;;;14.90;6.30;;;;;;;11.78;100.00;100292.05;104843;1258;72641;-50
2023/10/04 04:06:18;;;;;;;15.80;5.50;;;;;;;11.77;100.00;100293.89;105034;1260;60549;-52
2023/10/04 04:08:49;;;;;;;17.30;6.60;;;;;;;11.76;100.00;100297.14;104909;1254;61054;-51
2023/10/04 04:11:17;;;;;;;11.20;5.90;;;;;;;11.74;100.00;100304.95;104797;1260;73942;-52
2023/10/04 04:13:45;;;;;;;17.20;7.10;;;;;;;11.72;100.00;100305.58;106255;1260;67395;-52
2023/10/04 04:16:16;;;;;;;18.30;7.60;;;;;;;11.71;100.00;100300.26;104687;1260;71466;-52
2023/10/04 04:18:47;;;;;;;17.90;7.80;;;;;;;11.69;100.00;100293.31;104855;1257;60809;-52
2023/10/04 04:21:16;;;;;;;18.60;8.70;;;;;;;11.67;100.00;100292.48;104825;1255;60622;-51
2023/10/04 04:23:44;;;;;;;14.20;7.20;;;;;;;11.65;100.00;100288.61;108998;1254;72687;-54
2023/10/04 04:26:12;;;;;;;17.00;6.40;;;;;;;11.65;100.00;100288.67;109102;1254;65503;-52
2023/10/04 04:28:39;;;;;;;12.60;6.10;;;;;;;11.63;100.00;100282.43;109161;1254;71397;-53
2023/10/04 04:31:14;;;;;;;12.70;5.60;;;;;;;11.63;100.00;100285.86;108693;1257;60652;-52
2023/10/04 04:33:44;;;;;;;18.00;6.30;;;;;;;11.63;100.00;100287.47;108965;1260;61116;-54
2023/10/04 04:36:26;;;;;;;12.40;6.80;;;;;;;11.64;100.00;100286.17;108786;1254;75440;-51
2023/10/04 04:38:57;;;;;;;15.10;6.80;;;;;;;11.66;100.00;100285.71;108743;1254;65816;-53
2023/10/04 04:41:29;;;;;;;15.20;6.60;;;;;;;11.69;100.00;100280.36;108863;1254;71293;-51
2023/10/04 04:43:59;;;;;;;16.30;5.70;;;;;;;11.73;100.00;100277.33;108800;1259;58877;-53
2023/10/04 04:46:31;;;;;;;13.70;5.90;;;;;;;11.77;100.00;100275.73;108929;1254;58618;-54
2023/10/04 04:48:59;;;;;;;16.50;6.40;;;;;;;11.82;100.00;100279.64;109021;1253;74176;-52
2023/10/04 04:51:27;;;;;;;17.40;6.40;;;;;;;11.86;100.00;100287.38;108912;1254;67058;-53
2023/10/04 04:53:56;;;;;;;12.40;5.60;;;;;;;11.90;100.00;100286.84;108962;1254;73030;-51
2023/10/04 04:56:26;;;;;;;13.70;5.70;;;;;;;11.93;100.00;100282.35;107969;1257;59102;-51
2023/10/04 04:59:07;;;;;;;13.50;6.40;;;;;;;11.97;100.00;100275.19;105396;1260;60715;-51
2023/10/04 05:01:38;;;;;;;14.60;5.70;;;;;;;12.01;100.00;100275.34;108994;1255;74057;-54
2023/10/04 05:04:07;;;;;;;8.60;4.80;;;;;;;12.03;100.00;100272.20;106050;1259;66803;-51
2023/10/04 05:06:36;;;;;;;13.90;6.40;;;;;;;12.06;100.00;100273.52;105021;1258;72955;-51
2023/10/04 05:09:05;;;;;;;15.10;5.40;;;;;;;12.09;100.00;100270.65;104764;1260;60552;-51
2023/10/04 05:11:36;;;;;;;15.40;5.90;;;;;;;12.13;100.00;100261.11;107050;1258;60478;-50
2023/10/04 05:14:05;;;;;;;14.20;5.90;;;;;;;12.19;100.00;100261.55;104921;1260;72643;-51
2023/10/04 05:16:34;;;;;;;14.40;5.00;;;;;;;12.28;100.00;100259.54;105061;1256;66686;-51
2023/10/04 05:19:03;;;;;;;16.40;5.70;;;;;;;12.38;100.00;100255.23;104982;1254;71521;-50
2023/10/04 05:21:32;;;;;;;16.40;5.10;;;;;;;12.49;100.00;100253.99;106105;1260;60536;-51
2023/10/04 05:23:59;;;;;;;16.60;5.80;;;;;;;12.61;100.00;100246.04;105523;1254;60335;-50
2023/10/04 05:26:27;;;;;;;15.90;6.00;;;;;;;12.73;100.00;100242.38;104832;1260;73925;-52
2023/10/04 05:28:55;;;;;;;19.90;5.90;;;;;;;12.87;100.00;100241.88;105415;1254;67347;-52
2023/10/04 05:31:23;;;;;;;16.20;5.00;;;;;;;13.00;100.00;100240.47;104859;1261;73181;-53
2023/10/04 05:33:50;;;;;;;12.90;5.50;;;;;;;13.11;100.00;100240.66;104908;1269;60555;-52
2023/10/04 05:36:18;;;;;;;14.20;5.70;;;;;;;13.23;100.00;100248.89;105079;1257;60539;-50
2023/10/04 05:38:45;;;;;;;12.70;4.90;;;;;;;13.35;100.00;100249.39;104980;1255;72564;-51
2023/10/04 05:41:13;;;;;;;18.00;6.00;;;;;;;13.44;100.00;100248.33;105072;1258;64878;-52
2023/10/04 05:43:40;;;;;;;14.10;6.10;;;;;;;13.52;100.00;100249.52;105132;1254;71451;-53
2023/10/04 05:46:08;;;;;;;14.70;5.50;;;;;;;13.60;100.00;100253.27;104668;1256;60443;-53
2023/10/04 05:48:35;;;;;;;11.70;5.00;;;;;;;13.68;100.00;100253.74;105052;1257;60331;-52
2023/10/04 05:51:06;;;;;;;15.40;6.70;;;;;;;13.75;100.00;100259.70;104924;1255;75378;-52
2023/10/04 05:53:34;;;;;;;12.70;5.70;;;;;;;13.82;100.00;100263.10;105413;1254;65793;-53
2023/10/04 05:56:02;;;;;;;12.80;6.20;;;;;;;13.89;100.00;100264.34;108792;1257;70482;-54
2023/10/04 05:58:31;;;;;;;18.30;5.70;;;;;;;13.96;100.00;100258.02;107308;1257;60627;-51
2023/10/04 06:00:59;;;;;;;14.90;6.20;;;;;;;14.01;100.00;100249.05;105389;1258;61034;-51
2023/10/04 06:03:27;;;;;;;12.70;5.20;;;;;;;14.05;100.00;100242.55;104951;1257;73873;-53
2023/10/04 06:05:59;;;;;;;9.70;5.40;;;;;;;14.08;100.00;100247.79;105023;1254;65833;-53
2023/10/04 06:08:27;;;;;;;16.20;6.10;;;;;;;14.10;100.00;100253.09;105019;1254;72595;-54
2023/10/04 06:10:54;;;;;;;11.80;5.50;;;;;;;14.12;100.00;100251.70;108929;1253;60817;-53
2023/10/04 06:13:25;;;;;;;18.80;6.20;;;;;;;14.14;100.00;100251.58;106248;1257;60862;-55
2023/10/04 06:15:54;;;;;;;12.20;4.60;;;;;;;14.16;100.00;100256.17;105245;1257;72728;-52
2023/10/04 06:18:26;;;;;;;13.90;6.00;;;;;;;14.17;100.00;100255.95;104997;1257;66058;-53
2023/10/04 06:20:54;;;;;;;15.00;6.40;;;;;;;14.18;100.00;100249.73;104965;1257;72710;-51
2023/10/04 06:23:22;;;;;;;11.70;6.00;;;;;;;14.20;100.00;100246.23;104757;1254;60457;-51
2023/10/04 06:25:50;;;;;;;14.90;5.90;;;;;;;14.21;100.00;100249.02;105152;1254;60689;-51
2023/10/04 06:28:17;;;;;;;16.60;5.60;;;;;;;14.22;100.00;100250.06;104912;1254;73314;-53
2023/10/04 06:30:48;;;;;;;9.00;4.40;;;;;;;14.23;100.00;100253.25;108438;1257;66682;-53
2023/10/04 06:33:16;;;;;;;18.30;7.30;;;;;;;14.25;100.00;100254.95;105093;1254;73333;-54
2023/10/04 06:35:44;;;;;;;11.50;5.40;;;;;;;14.26;100.00;100259.75;104828;1260;60718;-50
2023/10/04 06:38:12;;;;;;;17.30;5.90;;;;;;;14.28;100.00;100263.26;105093;1258;60537;-50
2023/10/04 06:40:40;;;;;;;16.30;6.60;;;;;;;14.31;100.00;100260.02;104934;1253;73806;-52
2023/10/04 06:43:09;;;;;;;12.10;6.60;;;;;;;14.34;100.00;100256.09;105232;1255;66038;-51
2023/10/04 06:45:37;;;;;;;15.90;6.60;;;;;;;14.37;100.00;100258.79;105107;1254;72713;-52
2023/10/04 06:48:05;;;;;;;15.70;5.80;;;;;;;14.43;100.00;100258.67;105339;1254;61184;-55
2023/10/04 06:50:40;;;;;;;18.00;6.00;;;;;;;14.49;100.00;100255.61;105575;1257;60521;-54
2023/10/04 06:53:12;;;;;;;16.00;6.00;;;;;;;14.56;100.00;100251.41;105473;1256;72687;-52
2023/10/04 06:55:41;;;;;;;10.20;4.80;;;;;;;14.64;100.00;100246.11;105149;1254;66248;-52
2023/10/04 06:58:10;;;;;;;12.40;5.10;;;;;;;14.71;100.00;100247.88;105078;1254;70296;-52
2023/10/04 07:00:39;;;;;;;18.10;6.00;;;;;;;14.77;100.00;100247.31;105147;1257;60494;-52
2023/10/04 07:03:06;;;;;;;17.40;6.10;;;;;;;14.84;100.00;100245.88;105286;1254;60559;-51
2023/10/04 07:05:38;;;;;;;10.50;5.20;;;;;;;14.88;100.00;100247.61;106278;1253;73822;-53
2023/10/04 07:08:08;;;;;;;11.60;5.50;;;;;;;14.91;100.00;100250.13;108998;1252;65719;-53
2023/10/04 07:10:36;;;;;;;13.80;5.30;;;;;;;14.95;100.00;100251.55;107793;1254;71463;-52
2023/10/04 07:13:06;;;;;;;12.30;5.90;;;;;;;15.00;100.00;100247.98;104869;1260;60426;-52
2023/10/04 07:15:35;;;;;;;16.90;6.50;;;;;;;15.03;100.00;100245.61;105053;1254;60610;-52
2023/10/04 07:18:07;;;;;;;13.30;6.00;;;;;;;15.06;100.00;100247.07;109059;1253;74325;-54
2023/10/04 07:20:35;;;;;;;10.60;5.70;;;;;;;15.10;100.00;100246.30;109026;1253;65420;-54
2023/10/04 07:23:03;;;;;;;12.20;5.50;;;;;;;15.13;100.00;100248.06;109098;1253;72689;-54
2023/10/04 07:25:35;;;;;;;12.00;7.10;;;;;;;15.18;100.00;100251.26;109052;1253;60130;-54
2023/10/04 07:28:04;;;;;;;13.00;5.40;;;;;;;15.22;100.00;100250.25;109032;1254;58803;-52
2023/10/04 07:30:33;;;;;;;12.70;5.30;;;;;;;15.30;100.00;100257.20;109008;1256;72637;-50
2023/10/04 07:33:01;;;;;;;12.00;4.80;;;;;;;15.40;100.00;100260.41;109201;1254;66226;-54
2023/10/04 07:35:29;;;;;;;12.40;5.00;;;;;;;15.49;100.00;100267.97;108926;1254;73242;-54
2023/10/04 07:37:56;;;;;;;12.80;5.20;;;;;;;15.57;100.00;100270.98;108914;1254;58827;-52
2023/10/04 07:40:27;;;;;;;15.90;5.70;;;;;;;15.63;100.00;100271.70;108997;1253;58701;-53
2023/10/04 07:42:55;;;;;;;8.90;5.20;;;;;;;15.68;100.00;100272.11;109056;1254;73947;-52
2023/10/04 07:45:23;;;;;;;11.80;5.40;;;;;;;15.74;100.00;100270.67;109114;1253;67161;-53
2023/10/04 07:47:51;;;;;;;13.00;4.70;;;;;;;15.79;100.00;100281.05;109089;1254;72724;-53
2023/10/04 07:50:23;;;;;;;9.20;4.50;;;;;;;15.83;100.00;100284.38;109070;1253;58871;-52
2023/10/04 07:52:51;;;;;;;15.70;5.20;;;;;;;15.89;100.00;100284.61;109070;1253;59254;-54
2023/10/04 07:55:19;;;;;;;10.20;4.80;;;;;;;15.93;100.00;100290.11;107041;1254;72325;-53
2023/10/04 07:57:47;;;;;;;16.70;5.30;;;;;;;15.97;100.00;100292.26;104807;1254;65916;-53
2023/10/04 08:00:16;;;;;;;12.70;5.40;;;;;;;16.02;100.00;100301.31;105284;1257;72776;-53
2023/10/04 08:02:50;;;;;;;11.80;5.40;;;;;;;16.07;100.00;100293.45;104997;1257;61292;-51
2023/10/04 08:05:31;;;;;;;17.70;4.70;;;;;;;16.11;100.00;100294.95;105338;1254;60731;-51
2023/10/04 08:08:00;;;;;;;11.40;4.60;;;;;;;16.15;100.00;100302.69;104881;1254;72760;-53
2023/10/04 08:10:33;;;;;;;11.00;5.40;;;;;;;16.19;100.00;100299.71;105439;1259;66970;-51
2023/10/04 08:13:01;;;;;;;16.50;4.10;;;;;;;16.22;100.00;100296.10;105402;1256;72732;-53
2023/10/04 08:15:29;;;;;;;6.10;3.30;;;;;;;16.24;100.00;100304.46;105582;1254;60559;-53
2023/10/04 08:17:58;;;;;;;8.20;3.80;;;;;;;16.28;100.00;100314.52;105781;1254;60542;-53
2023/10/04 08:20:29;;;;;;;9.00;2.70;;;;;;;16.33;100.00;100318.02;105301;1252;73480;-52
2023/10/04 08:22:57;;;;;;;8.10;3.60;;;;;;;16.40;100.00;100316.29;105431;1254;66832;-50
2023/10/04 08:25:27;;;;;;;13.90;3.10;;;;;;;16.49;100.00;100320.65;105065;1254;71439;-54
2023/10/04 08:27:55;;;;;;;10.20;3.60;;;;;;;16.57;100.00;100321.71;105017;1256;61069;-51
2023/10/04 08:30:23;;;;;;;6.90;2.90;;;;;;;16.68;100.00;100317.45;105041;1257;60530;-54
2023/10/04 08:32:50;;;;;;;10.00;3.40;;;;;;;16.79;100.00;100321.98;104866;1254;74009;-54
2023/10/04 08:35:21;;;;;;;7.30;3.40;;;;;;;16.88;100.00;100327.17;105273;1254;67568;-50
2023/10/04 08:37:53;;;;;;;8.10;3.20;;;;;;;16.97;100.00;100327.86;105243;1254;70288;-51
2023/10/04 08:40:22;;;;;;;8.80;2.90;;;;;;;17.05;100.00;100328.59;105111;1258;60469;-52
2023/10/04 08:42:50;;;;;;;13.20;3.80;;;;;;;17.11;100.00;100326.19;105686;1256;60626;-54
2023/10/04 08:45:22;;;;;;;14.10;3.40;;;;;;;17.14;100.00;100326.71;105315;1254;72655;-52
2023/10/04 08:47:50;;;;;;;7.30;2.70;;;;;;;17.16;100.00;100332.41;105109;1254;66959;-51
2023/10/04 08:50:23;;;;;;;10.60;3.10;;;;;;;17.15;100.00;100332.84;105663;1254;72717;-55
2023/10/04 08:52:51;;;;;;;9.30;2.80;;;;;;;17.12;100.00;100336.44;105033;1254;60606;-52
2023/10/04 08:55:18;;;;;;;10.90;3.80;;;;;;;17.10;100.00;100336.10;104958;1253;60539;-53
2023/10/04 08:57:45;;;;;;;3.80;2.90;;;;;;;17.08;100.00;100335.14;104981;1254;74425;-53
2023/10/04 09:00:13;;;;;;;16.00;5.80;;;;;;;17.08;100.00;100334.77;105101;1260;65712;-53
2023/10/04 09:02:56;;;;;;;24.00;9.80;;;;;;;17.09;100.00;100332.73;105138;1254;72734;-52
2023/10/04 09:05:24;;;;;;;7.00;2.70;;;;;;;17.11;100.00;100331.48;105478;1255;62021;-51
2023/10/04 09:07:51;;;;;;;11.00;2.80;;;;;;;17.13;100.00;100326.46;104931;1255;64857;-52
2023/10/04 09:10:19;;;;;;;13.90;3.70;;;;;;;17.16;100.00;100319.92;104780;1253;72696;-54
2023/10/04 09:12:49;;;;;;;7.60;3.00;;;;;;;17.20;100.00;100317.11;104878;1257;65950;-52
2023/10/04 09:15:26;;;;;;;7.20;3.20;;;;;;;17.25;100.00;100319.09;105000;1258;72740;-51
2023/10/04 09:17:57;;;;;;;6.80;3.00;;;;;;;17.32;100.00;100336.79;105223;1254;60498;-52
2023/10/04 09:20:35;;;;;;;4.60;2.60;;;;;;;17.41;100.00;100343.98;104972;1254;60482;-55
2023/10/04 09:23:23;;;;;;;9.40;2.80;;;;;;;17.49;100.00;100346.89;105169;1254;72739;-53
2023/10/04 09:25:55;;;;;;;4.50;1.60;;;;;;;17.59;100.00;100341.33;105074;1253;65619;-55
2023/10/04 09:28:37;;;;;;;4.10;1.70;;;;;;;17.66;100.00;100339.58;105177;1256;72741;-53
2023/10/04 09:31:12;;;;;;;4.90;2.10;;;;;;;17.72;100.00;100332.96;105063;1256;60441;-52
2023/10/04 09:33:41;;;;;;;5.80;2.10;;;;;;;17.75;100.00;100347.48;105435;1254;60828;-52
2023/10/04 09:36:13;;;;;;;5.90;1.80;;;;;;;17.74;100.00;100351.93;105018;1254;72618;-51
2023/10/04 09:38:41;;;;;;;5.50;2.00;;;;;;;17.72;100.00;100349.86;105505;1253;64924;-53
2023/10/04 09:41:10;;;;;;;6.50;2.20;;;;;;;17.71;100.00;100361.36;104923;1253;72691;-51
2023/10/04 09:43:39;;;;;;;7.00;2.10;;;;;;;17.69;100.00;100356.10;105033;1254;60556;-51
2023/10/04 09:46:12;;;;;;;4.70;1.50;;;;;;;17.67;100.00;100353.11;105149;1252;60319;-51
2023/10/04 09:48:44;;;;;;;6.10;1.50;;;;;;;17.67;100.00;100364.20;106247;1253;74304;-52
2023/10/04 09:51:13;;;;;;;7.30;1.70;;;;;;;17.67;100.00;100364.72;105314;1257;66195;-53
2023/10/04 09:53:42;;;;;;;4.40;1.60;;;;;;;17.68;100.00;100363.38;108975;1254;72712;-52
2023/10/04 09:56:13;;;;;;;9.30;2.00;;;;;;;17.69;100.00;100368.94;105614;1254;61378;-52
2023/10/04 09:58:51;;;;;;;5.30;2.30;;;;;;;17.70;100.00;100366.86;105006;1254;60467;-51
2023/10/04 10:01:19;;;;;;;7.10;2.60;;;;;;;17.73;100.00;100371.77;104872;1257;74298;-53
2023/10/04 10:03:56;;;;;;;5.00;2.40;;;;;;;17.77;100.00;100377.14;105145;1254;66962;-52
2023/10/04 10:06:26;;;;;;;4.30;1.80;;;;;;;17.79;100.00;100375.70;104803;1254;72720;-53
2023/10/04 10:08:59;;;;;;;3.30;2.10;;;;;;;17.83;100.00;100380.02;105030;1254;60769;-52
2023/10/04 10:11:27;;;;;;;5.70;2.30;;;;;;;17.85;100.00;100381.68;105095;1254;60648;-52
2023/10/04 10:13:54;;;;;;;3.30;1.80;;;;;;;17.87;100.00;100381.37;104820;1257;73922;-53
2023/10/04 10:16:23;;;;;;;10.90;2.10;;;;;;;17.90;100.00;100381.52;104770;1254;65662;-54
2023/10/04 10:18:52;;;;;;;5.10;1.80;;;;;;;17.91;100.00;100389.05;108833;1254;73146;-52
2023/10/04 10:21:20;;;;;;;3.00;1.50;;;;;;;17.93;100.00;100386.21;109120;1256;59361;-53
2023/10/04 10:23:57;;;;;;;4.10;1.90;;;;;;;17.96;100.00;100389.65;109017;1254;59089;-55
2023/10/04 10:26:24;;;;;;;4.60;1.60;;;;;;;17.98;100.00;100391.11;109177;1253;73942;-54
2023/10/04 10:28:59;;;;;;;4.90;2.10;;;;;;;17.99;100.00;100389.73;109094;1253;67332;-55
2023/10/04 10:31:27;;;;;;;6.30;1.60;;;;;;;18.02;100.00;100384.88;108983;1254;72724;-53
2023/10/04 10:33:56;;;;;;;8.80;2.10;;;;;;;18.02;100.00;100385.58;107217;1258;60585;-52
2023/10/04 10:36:24;;;;;;;5.90;1.80;;;;;;;18.03;100.00;100393.82;109087;1252;58820;-53
2023/10/04 10:38:52;;;;;;;4.30;1.70;;;;;;;18.04;100.00;100398.66;109096;1253;74041;-56
2023/10/04 10:41:30;;;;;;;2.90;1.40;;;;;;;18.03;100.00;100405.98;109073;1254;65684;-55
2023/10/04 10:44:30;;;;;;;5.20;1.70;;;;;;;18.01;100.00;100408.30;109170;1253;73296;-53
2023/10/04 10:47:18;;;;;;;5.60;1.80;;;;;;;18.01;100.00;100413.80;108998;1253;59511;-52
2023/10/04 10:49:52;;;;;;;2.70;1.30;;;;;;;18.03;100.00;100403.09;109122;1252;58811;-53
2023/10/04 10:52:26;;;;;;;4.00;1.40;;;;;;;18.09;100.00;100415.05;109010;1253;73886;-53
2023/10/04 10:54:58;;;;;;;5.20;1.60;;;;;;;18.14;100.00;100423.77;107881;1253;65776;-50
2023/10/04 10:57:29;;;;;;;2.30;1.40;;;;;;;18.16;100.00;100419.83;105008;1254;71450;-51
2023/10/04 10:59:58;;;;;;;5.70;1.60;;;;;;;18.17;100.00;100424.85;104964;1259;60424;-52
2023/10/04 11:02:26;;;;;;;4.10;1.50;;;;;;;18.17;100.00;100427.56;105163;1257;62157;-54
2023/10/04 11:04:56;;;;;;;2.60;1.10;;;;;;;18.17;100.00;100428.66;104996;1254;72787;-54
2023/10/04 11:07:24;;;;;;;4.00;1.40;;;;;;;18.17;100.00;100427.19;105018;1256;67262;-53
2023/10/04 11:09:54;;;;;;;7.60;1.90;;;;;;;18.18;100.00;100432.61;105619;1256;73310;-52
2023/10/04 11:12:22;;;;;;;3.00;1.30;;;;;;;18.17;100.00;100437.21;105314;1254;60584;-49
2023/10/04 11:14:52;;;;;;;4.10;1.60;;;;;;;18.16;100.00;100437.82;105077;1253;60451;-53
2023/10/04 11:17:23;;;;;;;5.60;1.20;;;;;;;18.16;100.00;100447.79;104999;1257;73021;-53
2023/10/04 11:19:50;;;;;;;1.70;1.00;;;;;;;18.18;100.00;100445.34;105415;1253;66931;-55